sensor_id;sensor_type;location;lat;lon;timestamp;pressure;altitude;pressure_sealevel;temperature;humidity
43125;BME280;49182;50.788;7.318;2022-12-10T00:01:35;100057.22;;;-3.40;94.80
43125;BME280;49182;50.788;7.318;2022-12-10T00:04:04;100045.97;;;-3.39;94.86
43125;BME280;49182;50.788;7.318;2022-12-10T00:06:32;100056.88;;;-3.32;94.73
43125;BME280;49182;50.788;7.318;2022-12-10T00:09:02;100054.50;;;-3.37;95.31
43125;BME280;49182;50.788;7.318;2022-12-10T00:11:29;100031.16;;;-3.55;94.80
43125;BME280;49182;50.788;7.318;2022-12-10T00:13:57;100055.69;;;-3.45;95.23
43125;BME280;49182;50.788;7.318;2022-12-10T00:16:25;100057.63;;;-3.50;95.29
43125;BME280;49182;50.788;7.318;2022-12-10T00:18:53;100062.06;;;-3.54;95.35
43125;BME280;49182;50.788;7.318;2022-12-10T00:21:22;100058.50;;;-3.51;95.79
43125;BME280;49182;50.788;7.318;2022-12-10T00:23:49;100062.84;;;-3.52;95.55
43125;BME280;49182;50.788;7.318;2022-12-10T00:26:18;100062.13;;;-3.55;95.08
43125;BME280;49182;50.788;7.318;2022-12-10T00:28:46;99992.66;;;-4.03;95.09
43125;BME280;49182;50.788;7.318;2022-12-10T00:31:17;100065.22;;;-3.69;95.11
43125;BME280;49182;50.788;7.318;2022-12-10T00:33:45;100031.78;;;-3.94;95.15
43125;BME280;49182;50.788;7.318;2022-12-10T00:36:14;100047.78;;;-3.84;94.96
43125;BME280;49182;50.788;7.318;2022-12-10T00:38:42;100064.75;;;-3.79;94.50
43125;BME280;49182;50.788;7.318;2022-12-10T00:41:10;100027.94;;;-4.05;94.43
43125;BME280;49182;50.788;7.318;2022-12-10T00:43:39;100063.44;;;-3.89;94.36
43125;BME280;49182;50.788;7.318;2022-12-10T00:46:06;100070.97;;;-3.84;94.52
43125;BME280;49182;50.788;7.318;2022-12-10T00:48:33;100071.75;;;-3.82;94.66
43125;BME280;49182;50.788;7.318;2022-12-10T00:51:03;100074.28;;;-3.81;94.80
43125;BME280;49182;50.788;7.318;2022-12-10T00:53:31;100016.19;;;-4.13;94.84
43125;BME280;49182;50.788;7.318;2022-12-10T00:55:58;100051.09;;;-3.82;94.94
43125;BME280;49182;50.788;7.318;2022-12-10T00:58:26;100067.88;;;-3.71;95.25
43125;BME280;49182;50.788;7.318;2022-12-10T01:01:06;100070.22;;;-3.64;95.22
43125;BME280;49182;50.788;7.318;2022-12-10T01:03:32;100077.72;;;-3.58;94.92
43125;BME280;49182;50.788;7.318;2022-12-10T01:06:07;100071.53;;;-3.54;94.87
43125;BME280;49182;50.788;7.318;2022-12-10T01:08:34;100073.94;;;-3.50;95.34
43125;BME280;49182;50.788;7.318;2022-12-10T01:11:00;100044.53;;;-3.68;95.40
43125;BME280;49182;50.788;7.318;2022-12-10T01:13:27;100006.47;;;-3.83;94.95
43125;BME280;49182;50.788;7.318;2022-12-10T01:15:55;100080.34;;;-3.38;95.18
43125;BME280;49182;50.788;7.318;2022-12-10T01:18:23;100044.25;;;-3.60;95.37
43125;BME280;49182;50.788;7.318;2022-12-10T01:20:50;100081.00;;;-3.33;95.28
43125;BME280;49182;50.788;7.318;2022-12-10T01:23:17;100089.34;;;-3.27;95.04
43125;BME280;49182;50.788;7.318;2022-12-10T01:25:43;100090.97;;;-3.24;95.12
43125;BME280;49182;50.788;7.318;2022-12-10T01:28:10;99969.91;;;-3.94;95.40
43125;BME280;49182;50.788;7.318;2022-12-10T01:30:38;100092.44;;;-3.17;95.04
43125;BME280;49182;50.788;7.318;2022-12-10T01:33:06;100089.72;;;-3.14;95.06
43125;BME280;49182;50.788;7.318;2022-12-10T01:35:35;100066.31;;;-3.31;95.41
43125;BME280;49182;50.788;7.318;2022-12-10T01:38:02;100098.13;;;-3.09;95.42
43125;BME280;49182;50.788;7.318;2022-12-10T01:40:29;100105.78;;;-3.07;95.25
43125;BME280;49182;50.788;7.318;2022-12-10T01:42:56;100102.84;;;-2.98;94.90
43125;BME280;49182;50.788;7.318;2022-12-10T01:45:26;100124.28;;;-2.96;94.76
43125;BME280;49182;50.788;7.318;2022-12-10T01:47:53;100074.34;;;-3.17;95.01
43125;BME280;49182;50.788;7.318;2022-12-10T01:50:21;100118.94;;;-2.92;94.93
43125;BME280;49182;50.788;7.318;2022-12-10T01:52:48;100111.00;;;-2.87;94.96
43125;BME280;49182;50.788;7.318;2022-12-10T01:55:39;100109.97;;;-2.83;94.68
43125;BME280;49182;50.788;7.318;2022-12-10T01:58:06;100116.75;;;-2.80;95.11
43125;BME280;49182;50.788;7.318;2022-12-10T02:00:34;100114.03;;;-2.77;94.67
43125;BME280;49182;50.788;7.318;2022-12-10T02:03:09;100113.97;;;-2.76;94.82
43125;BME280;49182;50.788;7.318;2022-12-10T02:05:41;100079.63;;;-2.98;94.87
43125;BME280;49182;50.788;7.318;2022-12-10T02:08:16;100111.34;;;-2.74;94.63
43125;BME280;49182;50.788;7.318;2022-12-10T02:10:54;100123.41;;;-2.75;93.96
43125;BME280;49182;50.788;7.318;2022-12-10T02:13:26;100118.19;;;-2.73;94.69
43125;BME280;49182;50.788;7.318;2022-12-10T02:15:59;100125.81;;;-2.70;94.06
43125;BME280;49182;50.788;7.318;2022-12-10T02:18:32;100114.22;;;-2.82;94.20
43125;BME280;49182;50.788;7.318;2022-12-10T02:21:07;100129.16;;;-2.68;93.75
43125;BME280;49182;50.788;7.318;2022-12-10T02:23:38;100123.94;;;-2.67;93.85
43125;BME280;49182;50.788;7.318;2022-12-10T02:26:11;100113.03;;;-2.73;93.73
43125;BME280;49182;50.788;7.318;2022-12-10T02:28:44;100125.63;;;-2.66;93.62
43125;BME280;49182;50.788;7.318;2022-12-10T02:31:17;100119.47;;;-2.63;94.09
43125;BME280;49182;50.788;7.318;2022-12-10T02:33:50;100074.91;;;-2.89;93.72
43125;BME280;49182;50.788;7.318;2022-12-10T02:36:19;100119.28;;;-2.59;93.50
43125;BME280;49182;50.788;7.318;2022-12-10T02:38:49;100114.91;;;-2.57;94.05
43125;BME280;49182;50.788;7.318;2022-12-10T02:41:22;100119.16;;;-2.56;93.63
43125;BME280;49182;50.788;7.318;2022-12-10T02:43:52;100122.41;;;-2.51;93.40
43125;BME280;49182;50.788;7.318;2022-12-10T02:46:23;100108.13;;;-2.59;93.72
43125;BME280;49182;50.788;7.318;2022-12-10T02:48:51;100040.44;;;-2.88;93.39
43125;BME280;49182;50.788;7.318;2022-12-10T02:51:18;100118.44;;;-2.39;93.33
43125;BME280;49182;50.788;7.318;2022-12-10T02:53:47;100116.66;;;-2.37;93.32
43125;BME280;49182;50.788;7.318;2022-12-10T02:56:18;100108.84;;;-2.35;93.05
43125;BME280;49182;50.788;7.318;2022-12-10T02:58:57;100113.06;;;-2.34;92.60
43125;BME280;49182;50.788;7.318;2022-12-10T03:01:37;100079.56;;;-2.56;93.17
43125;BME280;49182;50.788;7.318;2022-12-10T03:04:13;100113.06;;;-2.34;93.48
43125;BME280;49182;50.788;7.318;2022-12-10T03:06:47;100114.75;;;-2.33;93.09
43125;BME280;49182;50.788;7.318;2022-12-10T03:09:21;100095.59;;;-2.48;93.17
43125;BME280;49182;50.788;7.318;2022-12-10T03:11:51;100077.81;;;-2.56;92.77
43125;BME280;49182;50.788;7.318;2022-12-10T03:14:27;100099.94;;;-2.49;93.06
43125;BME280;49182;50.788;7.318;2022-12-10T03:16:59;100131.00;;;-2.30;92.81
43125;BME280;49182;50.788;7.318;2022-12-10T03:19:31;100123.88;;;-2.25;92.65
43125;BME280;49182;50.788;7.318;2022-12-10T03:22:01;100074.34;;;-2.55;92.53
43125;BME280;49182;50.788;7.318;2022-12-10T03:24:30;99977.09;;;-3.16;92.92
43125;BME280;49182;50.788;7.318;2022-12-10T03:26:59;100132.59;;;-2.27;92.61
43125;BME280;49182;50.788;7.318;2022-12-10T03:29:29;100069.38;;;-2.59;92.97
43125;BME280;49182;50.788;7.318;2022-12-10T03:31:59;100122.97;;;-2.24;92.57
43125;BME280;49182;50.788;7.318;2022-12-10T03:34:27;100117.66;;;-2.21;92.53
43125;BME280;49182;50.788;7.318;2022-12-10T03:36:54;100123.47;;;-2.16;92.94
43125;BME280;49182;50.788;7.318;2022-12-10T03:39:22;100117.34;;;-2.13;92.11
43125;BME280;49182;50.788;7.318;2022-12-10T03:41:49;100117.28;;;-2.12;92.21
43125;BME280;49182;50.788;7.318;2022-12-10T03:44:27;100122.38;;;-2.10;92.04
43125;BME280;49182;50.788;7.318;2022-12-10T03:46:54;100129.22;;;-2.09;92.25
43125;BME280;49182;50.788;7.318;2022-12-10T03:49:22;100126.34;;;-2.03;91.25
43125;BME280;49182;50.788;7.318;2022-12-10T03:51:49;100113.91;;;-2.14;91.82
43125;BME280;49182;50.788;7.318;2022-12-10T03:54:16;100071.03;;;-2.38;91.67
43125;BME280;49182;50.788;7.318;2022-12-10T03:56:43;100092.84;;;-2.25;91.78
43125;BME280;49182;50.788;7.318;2022-12-10T03:59:10;100100.97;;;-2.14;92.11
43125;BME280;49182;50.788;7.318;2022-12-10T04:01:36;100129.72;;;-2.01;92.08
43125;BME280;49182;50.788;7.318;2022-12-10T04:04:03;100125.41;;;-2.00;91.69
43125;BME280;49182;50.788;7.318;2022-12-10T04:06:32;100127.03;;;-1.98;91.67
43125;BME280;49182;50.788;7.318;2022-12-10T04:08:58;100130.56;;;-2.00;92.00
43125;BME280;49182;50.788;7.318;2022-12-10T04:11:26;100130.50;;;-1.99;91.31
43125;BME280;49182;50.788;7.318;2022-12-10T04:13:53;100101.81;;;-2.13;91.74
43125;BME280;49182;50.788;7.318;2022-12-10T04:16:19;100130.50;;;-1.99;91.84
43125;BME280;49182;50.788;7.318;2022-12-10T04:18:46;100130.31;;;-1.94;90.68
43125;BME280;49182;50.788;7.318;2022-12-10T04:21:13;100138.19;;;-1.97;91.61
43125;BME280;49182;50.788;7.318;2022-12-10T04:23:41;100137.53;;;-2.03;91.62
43125;BME280;49182;50.788;7.318;2022-12-10T04:26:08;100140.13;;;-2.03;92.07
43125;BME280;49182;50.788;7.318;2022-12-10T04:28:34;100109.16;;;-2.23;91.73
43125;BME280;49182;50.788;7.318;2022-12-10T04:31:01;100144.41;;;-2.01;92.01
43125;BME280;49182;50.788;7.318;2022-12-10T04:33:28;100142.66;;;-2.01;91.63
43125;BME280;49182;50.788;7.318;2022-12-10T04:35:54;100147.72;;;-1.98;91.57
43125;BME280;49182;50.788;7.318;2022-12-10T04:38:21;100146.88;;;-1.98;91.22
43125;BME280;49182;50.788;7.318;2022-12-10T04:40:49;100147.63;;;-1.96;91.63
43125;BME280;49182;50.788;7.318;2022-12-10T04:43:16;100149.47;;;-1.98;91.22
43125;BME280;49182;50.788;7.318;2022-12-10T04:45:42;100138.44;;;-2.04;91.54
43125;BME280;49182;50.788;7.318;2022-12-10T04:48:09;100147.63;;;-1.96;91.53
43125;BME280;49182;50.788;7.318;2022-12-10T04:50:35;100139.88;;;-1.96;91.75
43125;BME280;49182;50.788;7.318;2022-12-10T04:53:04;100153.53;;;-1.93;91.49
43125;BME280;49182;50.788;7.318;2022-12-10T04:55:31;100153.47;;;-1.91;91.31
43125;BME280;49182;50.788;7.318;2022-12-10T04:57:58;100156.94;;;-1.92;91.47
43125;BME280;49182;50.788;7.318;2022-12-10T05:00:25;100151.84;;;-1.94;91.39
43125;BME280;49182;50.788;7.318;2022-12-10T05:02:52;100148.28;;;-1.91;91.15
43125;BME280;49182;50.788;7.318;2022-12-10T05:05:18;100149.94;;;-1.90;91.30
43125;BME280;49182;50.788;7.318;2022-12-10T05:07:45;100158.53;;;-1.90;91.17
43125;BME280;49182;50.788;7.318;2022-12-10T05:10:11;100156.78;;;-1.89;91.39
43125;BME280;49182;50.788;7.318;2022-12-10T05:12:38;100156.75;;;-1.88;91.15
43125;BME280;49182;50.788;7.318;2022-12-10T05:15:07;100147.19;;;-1.86;91.47
43125;BME280;49182;50.788;7.318;2022-12-10T05:17:35;100147.81;;;-1.81;91.14
43125;BME280;49182;50.788;7.318;2022-12-10T05:20:02;100147.81;;;-1.81;90.70
43125;BME280;49182;50.788;7.318;2022-12-10T05:22:29;100158.09;;;-1.79;90.56
43125;BME280;49182;50.788;7.318;2022-12-10T05:24:56;100151.13;;;-1.79;90.96
43125;BME280;49182;50.788;7.318;2022-12-10T05:27:22;100153.59;;;-1.76;90.35
43125;BME280;49182;50.788;7.318;2022-12-10T05:29:49;100150.88;;;-1.73;89.85
43125;BME280;49182;50.788;7.318;2022-12-10T05:32:17;100160.13;;;-1.67;90.20
43125;BME280;49182;50.788;7.318;2022-12-10T05:34:44;100158.44;;;-1.68;89.53
43125;BME280;49182;50.788;7.318;2022-12-10T05:37:10;100155.91;;;-1.70;89.64
43125;BME280;49182;50.788;7.318;2022-12-10T05:39:37;100163.69;;;-1.70;90.37
43125;BME280;49182;50.788;7.318;2022-12-10T05:42:03;100162.00;;;-1.71;90.10
43125;BME280;49182;50.788;7.318;2022-12-10T05:44:30;100163.53;;;-1.67;90.37
43125;BME280;49182;50.788;7.318;2022-12-10T05:46:57;100167.63;;;-1.61;89.63
43125;BME280;49182;50.788;7.318;2022-12-10T05:49:24;100172.91;;;-1.64;89.78
43125;BME280;49182;50.788;7.318;2022-12-10T05:51:54;100167.81;;;-1.66;89.87
43125;BME280;49182;50.788;7.318;2022-12-10T05:54:21;100182.22;;;-1.60;89.51
43125;BME280;49182;50.788;7.318;2022-12-10T05:56:48;100179.72;;;-1.61;89.49
43125;BME280;49182;50.788;7.318;2022-12-10T05:59:15;100184.81;;;-1.60;89.96
43125;BME280;49182;50.788;7.318;2022-12-10T06:01:43;100166.22;;;-1.68;88.92
43125;BME280;49182;50.788;7.318;2022-12-10T06:04:09;100182.16;;;-1.58;89.73
43125;BME280;49182;50.788;7.318;2022-12-10T06:06:38;100182.94;;;-1.56;89.27
43125;BME280;49182;50.788;7.318;2022-12-10T06:09:07;100186.38;;;-1.56;89.34
43125;BME280;49182;50.788;7.318;2022-12-10T06:11:37;100182.88;;;-1.55;89.18
43125;BME280;49182;50.788;7.318;2022-12-10T06:14:03;100187.22;;;-1.55;88.78
43125;BME280;49182;50.788;7.318;2022-12-10T06:16:30;100189.81;;;-1.55;89.28
43125;BME280;49182;50.788;7.318;2022-12-10T06:18:57;100188.13;;;-1.56;89.38
43125;BME280;49182;50.788;7.318;2022-12-10T06:21:24;100166.91;;;-1.65;89.27
43125;BME280;49182;50.788;7.318;2022-12-10T06:23:53;100188.19;;;-1.58;89.42
43125;BME280;49182;50.788;7.318;2022-12-10T06:26:22;100187.28;;;-1.57;89.39
43125;BME280;49182;50.788;7.318;2022-12-10T06:28:49;100182.50;;;-1.47;88.93
43125;BME280;49182;50.788;7.318;2022-12-10T06:31:17;100183.50;;;-1.50;89.07
43125;BME280;49182;50.788;7.318;2022-12-10T06:33:45;100174.34;;;-1.57;89.39
43125;BME280;49182;50.788;7.318;2022-12-10T06:36:13;100166.84;;;-1.63;89.72
43125;BME280;49182;50.788;7.318;2022-12-10T06:38:41;100161.72;;;-1.65;89.75
43125;BME280;49182;50.788;7.318;2022-12-10T06:41:11;100192.81;;;-1.46;90.02
43125;BME280;49182;50.788;7.318;2022-12-10T06:43:38;100196.16;;;-1.44;90.16
43125;BME280;49182;50.788;7.318;2022-12-10T06:46:06;100200.44;;;-1.43;89.56
43125;BME280;49182;50.788;7.318;2022-12-10T06:48:33;100195.94;;;-1.39;89.95
43125;BME280;49182;50.788;7.318;2022-12-10T06:51:00;100206.25;;;-1.38;89.60
43125;BME280;49182;50.788;7.318;2022-12-10T06:53:27;100206.19;;;-1.36;90.25
43125;BME280;49182;50.788;7.318;2022-12-10T06:55:53;100200.72;;;-1.30;88.98
43125;BME280;49182;50.788;7.318;2022-12-10T06:58:21;100204.97;;;-1.29;88.79
43125;BME280;49182;50.788;7.318;2022-12-10T07:00:48;100192.53;;;-1.40;89.07
43125;BME280;49182;50.788;7.318;2022-12-10T07:03:14;100205.97;;;-1.32;89.45
43125;BME280;49182;50.788;7.318;2022-12-10T07:05:41;100173.28;;;-1.53;89.19
43125;BME280;49182;50.788;7.318;2022-12-10T07:08:07;100221.28;;;-1.27;89.25
43125;BME280;49182;50.788;7.318;2022-12-10T07:10:36;100218.63;;;-1.26;89.17
43125;BME280;49182;50.788;7.318;2022-12-10T07:13:03;100217.78;;;-1.26;89.51
43125;BME280;49182;50.788;7.318;2022-12-10T07:15:32;100223.81;;;-1.26;88.84
43125;BME280;49182;50.788;7.318;2022-12-10T07:17:58;100229.91;;;-1.27;89.04
43125;BME280;49182;50.788;7.318;2022-12-10T07:20:25;100226.41;;;-1.26;88.90
43125;BME280;49182;50.788;7.318;2022-12-10T07:22:51;100226.25;;;-1.23;88.97
43125;BME280;49182;50.788;7.318;2022-12-10T07:25:18;100236.47;;;-1.19;89.29
43125;BME280;49182;50.788;7.318;2022-12-10T07:27:44;100233.84;;;-1.18;88.76
43125;BME280;49182;50.788;7.318;2022-12-10T07:30:11;100214.38;;;-1.27;88.94
43125;BME280;49182;50.788;7.318;2022-12-10T07:32:39;100231.88;;;-1.13;89.13
43125;BME280;49182;50.788;7.318;2022-12-10T07:35:06;100231.03;;;-1.13;88.80
43125;BME280;49182;50.788;7.318;2022-12-10T07:37:33;100241.44;;;-1.15;89.10
43125;BME280;49182;50.788;7.318;2022-12-10T07:40:00;100244.19;;;-1.18;89.60
43125;BME280;49182;50.788;7.318;2022-12-10T07:42:27;100241.59;;;-1.18;89.31
43125;BME280;49182;50.788;7.318;2022-12-10T07:44:53;100228.00;;;-1.23;89.29
43125;BME280;49182;50.788;7.318;2022-12-10T07:47:20;100243.97;;;-1.13;89.45
43125;BME280;49182;50.788;7.318;2022-12-10T07:49:48;100240.38;;;-1.11;89.91
43125;BME280;49182;50.788;7.318;2022-12-10T07:52:14;100254.00;;;-1.06;88.89
43125;BME280;49182;50.788;7.318;2022-12-10T07:54:41;100249.44;;;-1.01;88.51
43125;BME280;49182;50.788;7.318;2022-12-10T07:57:07;100258.06;;;-1.00;88.34
43125;BME280;49182;50.788;7.318;2022-12-10T07:59:34;100259.94;;;-1.04;88.12
43125;BME280;49182;50.788;7.318;2022-12-10T08:02:00;100260.03;;;-1.05;88.83
43125;BME280;49182;50.788;7.318;2022-12-10T08:04:34;100267.84;;;-1.07;89.28
43125;BME280;49182;50.788;7.318;2022-12-10T08:07:02;100200.50;;;-1.44;89.39
43125;BME280;49182;50.788;7.318;2022-12-10T08:09:30;100252.94;;;-1.02;88.26
43125;BME280;49182;50.788;7.318;2022-12-10T08:11:56;100267.34;;;-0.96;88.55
43125;BME280;49182;50.788;7.318;2022-12-10T08:14:23;100261.41;;;-0.98;89.18
43125;BME280;49182;50.788;7.318;2022-12-10T08:16:50;100246.06;;;-1.03;89.16
43125;BME280;49182;50.788;7.318;2022-12-10T08:19:16;100269.72;;;-0.92;89.45
43125;BME280;49182;50.788;7.318;2022-12-10T08:21:49;100272.31;;;-0.92;89.23
43125;BME280;49182;50.788;7.318;2022-12-10T08:24:17;100276.25;;;-0.83;88.33
43125;BME280;49182;50.788;7.318;2022-12-10T08:26:43;100278.91;;;-0.85;88.65
43125;BME280;49182;50.788;7.318;2022-12-10T08:29:10;100278.00;;;-0.84;88.34
43125;BME280;49182;50.788;7.318;2022-12-10T08:31:36;100261.03;;;-0.91;88.57
43125;BME280;49182;50.788;7.318;2022-12-10T08:34:04;100286.34;;;-0.77;88.90
43125;BME280;49182;50.788;7.318;2022-12-10T08:36:30;100294.03;;;-0.75;89.01
43125;BME280;49182;50.788;7.318;2022-12-10T08:38:57;100288.69;;;-0.72;88.92
43125;BME280;49182;50.788;7.318;2022-12-10T08:41:25;100296.13;;;-0.65;88.22
43125;BME280;49182;50.788;7.318;2022-12-10T08:43:52;100290.09;;;-0.65;87.80
43125;BME280;49182;50.788;7.318;2022-12-10T08:46:19;100281.34;;;-0.63;87.87
43125;BME280;49182;50.788;7.318;2022-12-10T08:48:45;100289.03;;;-0.61;88.40
43125;BME280;49182;50.788;7.318;2022-12-10T08:51:15;100296.63;;;-0.57;87.91
43125;BME280;49182;50.788;7.318;2022-12-10T08:53:42;100294.41;;;-0.47;86.75
43125;BME280;49182;50.788;7.318;2022-12-10T08:56:09;100295.31;;;-0.48;86.51
43125;BME280;49182;50.788;7.318;2022-12-10T08:58:37;100299.59;;;-0.47;87.29
43125;BME280;49182;50.788;7.318;2022-12-10T09:01:06;100298.63;;;-0.45;86.78
43125;BME280;49182;50.788;7.318;2022-12-10T09:03:34;100298.09;;;-0.51;87.47
43125;BME280;49182;50.788;7.318;2022-12-10T09:06:02;100308.00;;;-0.42;87.65
43125;BME280;49182;50.788;7.318;2022-12-10T09:08:29;100309.63;;;-0.39;87.80
43125;BME280;49182;50.788;7.318;2022-12-10T09:10:56;100300.16;;;-0.41;87.48
43125;BME280;49182;50.788;7.318;2022-12-10T09:13:23;100299.56;;;-0.28;86.15
43125;BME280;49182;50.788;7.318;2022-12-10T09:15:52;100271.25;;;-0.50;86.89
43125;BME280;49182;50.788;7.318;2022-12-10T09:18:19;100298.72;;;-0.29;87.34
43125;BME280;49182;50.788;7.318;2022-12-10T09:20:45;100311.09;;;-0.17;85.68
43125;BME280;49182;50.788;7.318;2022-12-10T09:23:12;100310.13;;;-0.14;86.02
43125;BME280;49182;50.788;7.318;2022-12-10T09:25:38;100313.63;;;-0.15;86.79
43125;BME280;49182;50.788;7.318;2022-12-10T09:28:05;100308.44;;;-0.15;86.34
43125;BME280;49182;50.788;7.318;2022-12-10T09:30:32;100316.59;;;-0.06;86.11
43125;BME280;49182;50.788;7.318;2022-12-10T09:33:01;100305.84;;;-0.15;86.59
43125;BME280;49182;50.788;7.318;2022-12-10T09:35:27;100315.63;;;-0.03;86.08
43125;BME280;49182;50.788;7.318;2022-12-10T09:37:54;100318.84;;;0.02;86.12
43125;BME280;49182;50.788;7.318;2022-12-10T09:40:29;100297.69;;;-0.08;86.55
43125;BME280;49182;50.788;7.318;2022-12-10T09:43:04;100311.59;;;0.09;86.09
43125;BME280;49182;50.788;7.318;2022-12-10T09:45:51;100304.88;;;0.05;86.56
43125;BME280;49182;50.788;7.318;2022-12-10T09:48:30;100319.91;;;0.15;86.12
43125;BME280;49182;50.788;7.318;2022-12-10T09:51:05;100316.34;;;0.18;86.16
43125;BME280;49182;50.788;7.318;2022-12-10T09:53:35;100321.28;;;0.22;84.95
43125;BME280;49182;50.788;7.318;2022-12-10T09:56:03;100316.03;;;0.24;84.83
43125;BME280;49182;50.788;7.318;2022-12-10T09:58:30;100316.78;;;0.26;84.22
43125;BME280;49182;50.788;7.318;2022-12-10T10:00:59;100293.97;;;0.15;85.08
43125;BME280;49182;50.788;7.318;2022-12-10T10:03:31;100313.13;;;0.30;84.64
43125;BME280;49182;50.788;7.318;2022-12-10T10:05:58;100313.03;;;0.31;85.16
43125;BME280;49182;50.788;7.318;2022-12-10T10:08:28;100316.34;;;0.35;85.35
43125;BME280;49182;50.788;7.318;2022-12-10T10:10:58;100308.63;;;0.33;85.33
43125;BME280;49182;50.788;7.318;2022-12-10T10:13:31;100313.13;;;0.30;85.04
43125;BME280;49182;50.788;7.318;2022-12-10T10:16:14;100312.06;;;0.34;85.38
43125;BME280;49182;50.788;7.318;2022-12-10T10:18:46;100303.91;;;0.24;84.73
43125;BME280;49182;50.788;7.318;2022-12-10T10:21:20;100316.47;;;0.32;84.59
43125;BME280;49182;50.788;7.318;2022-12-10T10:23:47;100315.41;;;0.36;84.48
43125;BME280;49182;50.788;7.318;2022-12-10T10:26:14;100317.84;;;0.39;83.86
43125;BME280;49182;50.788;7.318;2022-12-10T10:28:41;100317.59;;;0.44;84.29
43125;BME280;49182;50.788;7.318;2022-12-10T10:31:17;100317.16;;;0.53;83.72
43125;BME280;49182;50.788;7.318;2022-12-10T10:33:50;100304.47;;;0.47;82.43
43125;BME280;49182;50.788;7.318;2022-12-10T10:36:22;100309.19;;;0.56;83.65
43125;BME280;49182;50.788;7.318;2022-12-10T10:38:49;100314.19;;;0.60;83.54
43125;BME280;49182;50.788;7.318;2022-12-10T10:41:16;100301.25;;;0.59;83.58
43125;BME280;49182;50.788;7.318;2022-12-10T10:43:44;100313.78;;;0.68;83.33
43125;BME280;49182;50.788;7.318;2022-12-10T10:46:13;100312.84;;;0.69;81.80
43125;BME280;49182;50.788;7.318;2022-12-10T10:48:40;100310.94;;;0.72;81.84
43125;BME280;49182;50.788;7.318;2022-12-10T10:51:18;100315.28;;;0.72;81.68
43125;BME280;49182;50.788;7.318;2022-12-10T10:53:47;100308.09;;;0.77;81.68
43125;BME280;49182;50.788;7.318;2022-12-10T10:56:15;100317.50;;;0.79;81.36
43125;BME280;49182;50.788;7.318;2022-12-10T10:58:50;100319.25;;;0.79;80.19
43125;BME280;49182;50.788;7.318;2022-12-10T11:01:19;100305.00;;;0.53;78.67
43125;BME280;49182;50.788;7.318;2022-12-10T11:03:48;100280.78;;;0.53;78.66
43125;BME280;49182;50.788;7.318;2022-12-10T11:06:17;100322.91;;;0.75;79.14
43125;BME280;49182;50.788;7.318;2022-12-10T11:08:45;100325.50;;;0.75;79.15
43125;BME280;49182;50.788;7.318;2022-12-10T11:11:18;100316.13;;;0.72;78.66
43125;BME280;49182;50.788;7.318;2022-12-10T11:13:46;100321.75;;;0.80;78.60
43125;BME280;49182;50.788;7.318;2022-12-10T11:16:18;100320.75;;;0.83;76.38
43125;BME280;49182;50.788;7.318;2022-12-10T11:18:53;100313.59;;;0.71;77.02
43125;BME280;49182;50.788;7.318;2022-12-10T11:21:22;100307.31;;;0.75;77.89
43125;BME280;49182;50.788;7.318;2022-12-10T11:23:51;100315.41;;;0.86;77.55
43125;BME280;49182;50.788;7.318;2022-12-10T11:26:34;100310.81;;;0.91;78.10
43125;BME280;49182;50.788;7.318;2022-12-10T11:29:20;100301.59;;;0.86;77.17
43125;BME280;49182;50.788;7.318;2022-12-10T11:32:01;100322.56;;;0.98;76.89
43125;BME280;49182;50.788;7.318;2022-12-10T11:34:46;100317.19;;;1.01;76.74
43125;BME280;49182;50.788;7.318;2022-12-10T11:37:25;100327.53;;;1.03;77.16
43125;BME280;49182;50.788;7.318;2022-12-10T11:40:28;100324.00;;;1.04;76.40
43125;BME280;49182;50.788;7.318;2022-12-10T11:43:12;100318.22;;;0.99;76.02
43125;BME280;49182;50.788;7.318;2022-12-10T11:46:01;100300.66;;;0.87;76.34
43125;BME280;49182;50.788;7.318;2022-12-10T11:48:39;100322.53;;;0.82;74.31
43125;BME280;49182;50.788;7.318;2022-12-10T11:51:12;100331.34;;;0.96;73.92
43125;BME280;49182;50.788;7.318;2022-12-10T11:54:00;100328.50;;;1.00;74.85
43125;BME280;49182;50.788;7.318;2022-12-10T11:56:35;100332.78;;;1.01;74.39
43125;BME280;49182;50.788;7.318;2022-12-10T11:59:13;100333.03;;;0.97;73.13
43125;BME280;49182;50.788;7.318;2022-12-10T12:01:59;100328.69;;;0.97;74.98
43125;BME280;49182;50.788;7.318;2022-12-10T12:04:41;100302.25;;;0.89;75.36
43125;BME280;49182;50.788;7.318;2022-12-10T12:07:32;100333.97;;;1.11;74.99
43125;BME280;49182;50.788;7.318;2022-12-10T12:13:24;100336.56;;;1.11;73.25
43125;BME280;49182;50.788;7.318;2022-12-10T12:15:56;100337.34;;;1.13;73.74
43125;BME280;49182;50.788;7.318;2022-12-10T12:18:31;100348.44;;;1.17;72.79
43125;BME280;49182;50.788;7.318;2022-12-10T12:21:03;100329.28;;;1.18;70.54
43125;BME280;49182;50.788;7.318;2022-12-10T12:23:38;100329.63;;;1.12;69.83
43125;BME280;49182;50.788;7.318;2022-12-10T12:26:10;100341.94;;;1.08;70.84
43125;BME280;49182;50.788;7.318;2022-12-10T12:28:45;100337.31;;;0.98;71.70
43125;BME280;49182;50.788;7.318;2022-12-10T12:31:16;100339.16;;;0.96;72.56
43125;BME280;49182;50.788;7.318;2022-12-10T12:33:47;100342.59;;;0.96;73.40
43125;BME280;49182;50.788;7.318;2022-12-10T12:36:18;100344.88;;;1.02;72.72
43125;BME280;49182;50.788;7.318;2022-12-10T12:38:53;100348.38;;;1.01;73.44
43125;BME280;49182;50.788;7.318;2022-12-10T12:41:30;100343.38;;;0.98;73.70
43125;BME280;49182;50.788;7.318;2022-12-10T12:44:03;100347.53;;;1.01;74.42
43125;BME280;49182;50.788;7.318;2022-12-10T12:46:38;100341.94;;;1.08;73.68
43125;BME280;49182;50.788;7.318;2022-12-10T12:49:11;100345.31;;;1.10;73.83
43125;BME280;49182;50.788;7.318;2022-12-10T12:51:43;100332.53;;;1.06;74.18
43125;BME280;49182;50.788;7.318;2022-12-10T12:54:12;100340.63;;;1.17;74.33
43125;BME280;49182;50.788;7.318;2022-12-10T12:56:56;100344.88;;;1.18;73.88
43125;BME280;49182;50.788;7.318;2022-12-10T12:59:35;100336.47;;;0.97;73.18
43125;BME280;49182;50.788;7.318;2022-12-10T13:02:16;100344.22;;;0.99;72.45
43125;BME280;49182;50.788;7.318;2022-12-10T13:04:46;100343.19;;;1.01;74.00
43125;BME280;49182;50.788;7.318;2022-12-10T13:07:33;100331.69;;;1.05;73.79
43125;BME280;49182;50.788;7.318;2022-12-10T13:10:23;100338.84;;;1.17;73.01